createdAt,value
2022-11-24T00:01:31.212Z,6.72
2022-11-24T00:04:03.346Z,6.71
2022-11-24T00:06:33.367Z,6.69
2022-11-24T00:09:02.200Z,6.63
2022-11-24T00:11:33.198Z,6.66
2022-11-24T00:14:02.557Z,6.59
2022-11-24T00:16:33.298Z,6.59
2022-11-24T00:19:06.602Z,6.56
2022-11-24T00:21:35.036Z,6.53
2022-11-24T00:24:03.900Z,6.47
2022-11-24T00:26:34.556Z,6.43
2022-11-24T00:29:07.557Z,6.38
2022-11-24T00:31:38.155Z,6.40
2022-11-24T00:34:11.483Z,6.38
2022-11-24T00:36:40.829Z,6.34
2022-11-24T00:39:13.096Z,6.36
2022-11-24T00:41:42.020Z,6.33
2022-11-24T00:44:10.830Z,6.42
2022-11-24T00:46:39.634Z,6.43
2022-11-24T00:49:09.540Z,6.43
2022-11-24T00:51:38.779Z,6.45
2022-11-24T00:54:07.292Z,6.44
2022-11-24T00:56:35.704Z,6.42
2022-11-24T00:59:04.339Z,6.47
2022-11-24T01:01:32.658Z,6.45
2022-11-24T01:04:02.348Z,6.47
2022-11-24T01:06:35.623Z,6.48
2022-11-24T01:09:05.119Z,6.50
2022-11-24T01:11:56.077Z,6.53
2022-11-24T01:14:26.076Z,6.52
2022-11-24T01:16:55.383Z,6.59
2022-11-24T01:19:24.245Z,6.60
2022-11-24T01:21:54.079Z,6.61
2022-11-24T01:24:22.499Z,6.63
2022-11-24T01:26:51.133Z,6.66
2022-11-24T01:29:19.554Z,6.63
2022-11-24T01:31:47.881Z,6.64
2022-11-24T01:34:16.272Z,6.64
2022-11-24T01:36:44.713Z,6.63
2022-11-24T01:39:14.385Z,6.59
2022-11-24T01:41:43.246Z,6.64
2022-11-24T01:44:26.800Z,6.52
2022-11-24T01:46:59.044Z,6.54
2022-11-24T01:49:37.922Z,6.54
2022-11-24T01:52:10.501Z,6.63
2022-11-24T01:54:45.738Z,6.68
2022-11-24T01:57:20.904Z,6.71
2022-11-24T01:59:53.113Z,6.71
2022-11-24T02:02:29.873Z,6.72
2022-11-24T02:05:00.996Z,6.70
2022-11-24T02:07:29.551Z,6.67
2022-11-24T02:10:04.632Z,6.67
2022-11-24T02:12:33.541Z,6.68
2022-11-24T02:15:02.495Z,6.65
2022-11-24T02:17:30.936Z,6.70
2022-11-24T02:20:01.065Z,6.71
2022-11-24T02:22:37.707Z,6.70
2022-11-24T02:25:18.143Z,6.69
2022-11-24T02:27:53.475Z,6.73
2022-11-24T02:30:22.691Z,6.71
2022-11-24T02:32:52.437Z,6.73
2022-11-24T02:35:21.426Z,6.69
2022-11-24T02:37:49.819Z,6.73
2022-11-24T02:40:25.581Z,6.68
2022-11-24T02:42:59.246Z,6.66
2022-11-24T02:45:29.031Z,6.66
2022-11-24T02:47:57.326Z,6.67
2022-11-24T02:50:25.647Z,6.63
2022-11-24T02:52:54.019Z,6.58
2022-11-24T02:55:23.486Z,6.56
2022-11-24T02:57:51.963Z,6.51
2022-11-24T03:00:22.453Z,6.50
2022-11-24T03:02:50.807Z,6.47
2022-11-24T03:05:19.494Z,6.37
2022-11-24T03:07:47.864Z,6.31
2022-11-24T03:10:17.138Z,6.32
2022-11-24T03:12:45.426Z,6.23
2022-11-24T03:15:13.945Z,6.29
2022-11-24T03:17:43.707Z,6.24
2022-11-24T03:20:13.983Z,6.23
2022-11-24T03:22:42.567Z,6.18
2022-11-24T03:25:11.421Z,6.22
2022-11-24T03:27:39.848Z,6.19
2022-11-24T03:30:09.712Z,6.11
2022-11-24T03:32:38.175Z,6.11
2022-11-24T03:35:09.098Z,6.11
2022-11-24T03:37:37.389Z,6.09
2022-11-24T03:40:07.320Z,6.05
2022-11-24T03:42:35.619Z,6.05
2022-11-24T03:45:29.857Z,6.07
2022-11-24T03:47:53.098Z,6.05
2022-11-24T03:50:22.880Z,6.03
2022-11-24T03:52:51.192Z,6.04
2022-11-24T03:55:19.476Z,6.06
2022-11-24T03:57:48.043Z,6.06
2022-11-24T04:00:17.884Z,6.03
2022-11-24T04:02:46.187Z,6.03
2022-11-24T04:05:14.570Z,6.04
2022-11-24T04:07:44.190Z,5.98
2022-11-24T04:10:12.541Z,5.96
2022-11-24T04:12:45.633Z,5.99
2022-11-24T04:15:16.979Z,6.03
2022-11-24T04:17:45.710Z,5.94
2022-11-24T04:20:15.117Z,5.93
2022-11-24T04:22:45.356Z,5.93
2022-11-24T04:25:17.288Z,6.02
2022-11-24T04:27:45.679Z,5.99
2022-11-24T04:30:14.158Z,5.98
2022-11-24T04:32:42.502Z,6.01
2022-11-24T04:35:11.183Z,6.08
2022-11-24T04:37:39.861Z,6.06
2022-11-24T04:40:12.145Z,6.09
2022-11-24T04:42:40.747Z,6.08
2022-11-24T04:45:10.288Z,6.06
2022-11-24T04:47:38.804Z,6.05
2022-11-24T04:50:08.659Z,6.11
2022-11-24T04:52:37.198Z,6.08
2022-11-24T04:55:05.971Z,6.09
2022-11-24T04:57:35.897Z,6.07
2022-11-24T05:00:05.280Z,6.08
2022-11-24T05:02:33.519Z,6.06
2022-11-24T05:05:01.882Z,6.03
2022-11-24T05:07:31.643Z,6.05
2022-11-24T05:10:17.695Z,6.03
2022-11-24T05:12:55.031Z,6.05
2022-11-24T05:15:23.976Z,6.03
2022-11-24T05:17:52.415Z,6.02
2022-11-24T05:20:20.989Z,6.03
2022-11-24T05:22:49.459Z,6.00
2022-11-24T05:25:18.239Z,5.99
2022-11-24T05:27:48.009Z,6.03
2022-11-24T05:30:16.346Z,6.01
2022-11-24T05:32:44.629Z,6.02
2022-11-24T05:35:14.082Z,6.06
2022-11-24T05:37:42.322Z,6.04
2022-11-24T05:40:11.554Z,6.03
2022-11-24T05:42:47.236Z,6.02
2022-11-24T05:45:19.965Z,6.01
2022-11-24T05:47:49.414Z,6.00
2022-11-24T05:50:21.273Z,6.06
2022-11-24T05:52:50.293Z,6.06
2022-11-24T05:55:20.556Z,6.07
2022-11-24T05:57:49.042Z,6.07
2022-11-24T06:00:20.136Z,6.05
2022-11-24T06:02:49.499Z,6.05
2022-11-24T06:05:18.848Z,6.01
2022-11-24T06:07:47.292Z,6.06
2022-11-24T06:10:16.863Z,6.05
2022-11-24T06:12:45.433Z,6.08
2022-11-24T06:15:14.149Z,6.12
2022-11-24T06:17:43.920Z,6.06
2022-11-24T06:20:13.146Z,6.08
2022-11-24T06:22:41.641Z,6.05
2022-11-24T06:25:10.782Z,6.08
2022-11-24T06:27:39.206Z,6.06
2022-11-24T06:30:08.725Z,6.10
2022-11-24T06:32:37.189Z,6.07
2022-11-24T06:35:07.711Z,6.04
2022-11-24T06:37:37.906Z,6.07
2022-11-24T06:40:08.941Z,6.04
2022-11-24T06:42:37.825Z,6.02
2022-11-24T06:45:09.616Z,6.06
2022-11-24T06:47:38.484Z,6.08
2022-11-24T06:50:10.962Z,6.11
2022-11-24T06:52:39.336Z,6.18
2022-11-24T06:55:09.419Z,6.23
2022-11-24T06:57:37.873Z,6.25
2022-11-24T07:00:08.547Z,6.30
2022-11-24T07:02:41.101Z,6.39
2022-11-24T07:05:14.131Z,6.45
2022-11-24T07:07:43.073Z,6.45
2022-11-24T07:10:11.700Z,6.51
2022-11-24T07:12:39.986Z,6.49
2022-11-24T07:15:10.070Z,6.57
2022-11-24T07:17:39.249Z,6.57
2022-11-24T07:20:09.721Z,6.56
2022-11-24T07:22:39.414Z,6.57
2022-11-24T07:25:09.966Z,6.54
2022-11-24T07:27:38.413Z,6.54
2022-11-24T07:30:08.796Z,6.56
2022-11-24T07:32:37.331Z,6.55
2022-11-24T07:35:07.167Z,6.56
2022-11-24T07:37:35.665Z,6.51
2022-11-24T07:40:07.035Z,6.55
2022-11-24T07:42:35.544Z,6.55
2022-11-24T07:45:03.947Z,6.51
2022-11-24T07:47:32.426Z,6.52
2022-11-24T07:50:00.779Z,6.49
2022-11-24T07:52:29.527Z,6.47
2022-11-24T07:54:57.861Z,6.49
2022-11-24T07:57:29.182Z,6.48
2022-11-24T07:59:57.712Z,6.47
2022-11-24T08:02:26.273Z,6.50
2022-11-24T08:04:54.602Z,6.47
2022-11-24T08:07:23.252Z,6.48
2022-11-24T08:09:52.138Z,6.47
2022-11-24T08:12:22.271Z,6.50
2022-11-24T08:14:52.253Z,6.49
2022-11-24T08:17:20.782Z,6.54
2022-11-24T08:19:49.344Z,6.55
2022-11-24T08:22:17.873Z,6.54
2022-11-24T08:24:48.667Z,6.53
2022-11-24T08:27:17.716Z,6.60
2022-11-24T08:29:46.687Z,6.66
2022-11-24T08:32:22.048Z,6.61
2022-11-24T08:34:52.217Z,6.61
2022-11-24T08:37:26.143Z,6.60
2022-11-24T08:39:54.563Z,6.70
2022-11-24T08:42:23.070Z,6.77
2022-11-24T08:44:58.616Z,6.77
2022-11-24T08:47:29.045Z,6.82
2022-11-24T08:49:57.370Z,6.78
2022-11-24T08:52:25.958Z,6.78
2022-11-24T08:54:54.291Z,6.78
2022-11-24T08:57:23.000Z,6.82
2022-11-24T08:59:51.596Z,6.83
2022-11-24T09:02:19.908Z,6.77
2022-11-24T09:04:49.767Z,6.79
2022-11-24T09:07:18.903Z,6.76
2022-11-24T09:09:47.295Z,6.76
2022-11-24T09:12:15.874Z,6.79
2022-11-24T09:14:44.453Z,6.80
2022-11-24T09:17:13.150Z,6.77
2022-11-24T09:19:41.600Z,6.77
2022-11-24T09:22:11.284Z,6.81
2022-11-24T09:24:39.780Z,6.84
2022-11-24T09:27:08.170Z,6.92
2022-11-24T09:29:36.996Z,6.89
2022-11-24T09:32:07.124Z,6.93
2022-11-24T09:34:36.093Z,6.89
2022-11-24T09:37:04.488Z,6.90
2022-11-24T09:39:34.823Z,6.86
2022-11-24T09:42:15.649Z,6.85
2022-11-24T09:45:12.992Z,6.91
2022-11-24T09:47:53.224Z,6.97
2022-11-24T09:50:24.521Z,6.99
2022-11-24T09:53:01.188Z,7.00
2022-11-24T09:55:43.479Z,7.03
2022-11-24T09:58:31.150Z,6.97
2022-11-24T10:01:06.263Z,7.02
2022-11-24T10:03:42.040Z,7.00
2022-11-24T10:06:23.755Z,7.01
2022-11-24T10:09:16.136Z,7.02
2022-11-24T10:11:56.534Z,7.07
2022-11-24T10:15:09.212Z,7.10
2022-11-24T10:18:04.552Z,7.18
2022-11-24T10:20:53.838Z,7.24
2022-11-24T10:23:40.809Z,7.26
2022-11-24T10:26:19.294Z,7.24
2022-11-24T10:28:54.512Z,7.29
2022-11-24T10:31:33.821Z,7.28
2022-11-24T10:34:10.477Z,7.30
2022-11-24T10:36:46.397Z,7.35
2022-11-24T10:39:20.990Z,7.48
2022-11-24T10:41:58.063Z,7.49
2022-11-24T10:44:27.952Z,7.55
2022-11-24T10:46:56.506Z,7.60
2022-11-24T10:49:29.074Z,7.67
2022-11-24T10:52:13.868Z,7.76
2022-11-24T10:54:56.981Z,7.84
2022-11-24T10:57:34.184Z,7.85
2022-11-24T11:00:32.835Z,7.88
2022-11-24T11:03:20.787Z,8.02
2022-11-24T11:05:55.315Z,8.05
2022-11-24T11:08:27.319Z,8.08
2022-11-24T11:11:18.061Z,8.00
2022-11-24T11:14:01.660Z,8.03
2022-11-24T11:16:36.905Z,8.03
2022-11-24T11:19:26.020Z,7.98
2022-11-24T11:22:02.602Z,8.04
2022-11-24T11:24:31.976Z,8.06
2022-11-24T11:27:06.455Z,8.04
2022-11-24T11:35:14.775Z,8.34
2022-11-24T11:37:44.633Z,8.38
2022-11-24T11:40:17.492Z,8.37
2022-11-24T11:43:02.491Z,8.41
2022-11-24T11:45:37.006Z,8.41
2022-11-24T11:48:25.774Z,8.41
2022-11-24T11:51:22.997Z,8.39
2022-11-24T11:54:00.594Z,8.37
2022-11-24T11:56:32.578Z,8.44
2022-11-24T11:59:26.518Z,8.51
2022-11-24T12:02:39.215Z,8.80
2022-11-24T12:05:17.860Z,8.97
2022-11-24T12:08:10.273Z,9.23
2022-11-24T12:10:48.633Z,9.53
2022-11-24T12:13:48.517Z,9.67
2022-11-24T12:16:30.811Z,9.69
2022-11-24T12:19:19.416Z,9.54
2022-11-24T12:21:59.852Z,9.44
2022-11-24T12:24:41.979Z,9.36
2022-11-24T12:27:24.415Z,9.32
2022-11-24T12:30:11.001Z,9.28
2022-11-24T12:33:16.415Z,9.29
2022-11-24T12:35:47.029Z,9.25
2022-11-24T12:38:38.641Z,9.25
2022-11-24T12:41:47.523Z,9.21
2022-11-24T12:44:35.389Z,9.21
2022-11-24T12:47:15.447Z,9.16
2022-11-24T12:49:59.656Z,9.16
2022-11-24T12:52:35.080Z,9.24
2022-11-24T12:55:06.302Z,9.21
2022-11-24T12:57:42.122Z,9.24
2022-11-24T13:00:21.722Z,9.23
2022-11-24T13:03:22.371Z,9.24
2022-11-24T13:05:59.899Z,9.31
2022-11-24T13:08:29.313Z,9.41
2022-11-24T13:11:39.353Z,9.73
2022-11-24T13:14:14.306Z,10.08
2022-11-24T13:17:21.570Z,10.39
2022-11-24T13:19:42.472Z,10.60
2022-11-24T13:22:26.105Z,10.55
2022-11-24T13:25:23.477Z,10.59
2022-11-24T13:27:57.471Z,10.59
2022-11-24T13:31:09.426Z,10.48
2022-11-24T13:33:39.891Z,10.37
2022-11-24T13:36:37.416Z,10.31
2022-11-24T13:39:09.070Z,10.21
2022-11-24T13:42:42.313Z,10.10
2022-11-24T13:45:02.021Z,10.03
2022-11-24T13:47:38.319Z,9.99
2022-11-24T13:50:23.659Z,10.00
2022-11-24T13:53:01.043Z,10.01
2022-11-24T13:55:38.700Z,9.96
2022-11-24T13:58:32.063Z,10.12
2022-11-24T14:01:16.186Z,10.40
2022-11-24T14:04:32.513Z,10.73
2022-11-24T14:07:08.765Z,11.11
2022-11-24T14:09:43.629Z,11.29
2022-11-24T14:12:17.867Z,11.44
2022-11-24T14:14:48.461Z,11.58
2022-11-24T14:17:22.940Z,11.79
2022-11-24T14:19:54.044Z,11.82
2022-11-24T14:22:26.916Z,12.01
2022-11-24T14:24:58.955Z,12.19
2022-11-24T14:27:31.757Z,12.37
2022-11-24T14:30:04.415Z,12.29
2022-11-24T14:32:34.475Z,12.37
2022-11-24T14:35:03.552Z,12.34
2022-11-24T14:37:32.075Z,12.15
2022-11-24T14:40:01.808Z,11.92
2022-11-24T14:42:30.267Z,11.75
2022-11-24T14:45:03.972Z,11.56
2022-11-24T14:47:36.381Z,11.41
2022-11-24T14:50:12.326Z,11.16
2022-11-24T14:52:47.231Z,11.00
2022-11-24T14:55:27.826Z,10.97
2022-11-24T14:57:56.529Z,11.01
2022-11-24T15:00:30.207Z,11.00
2022-11-24T15:03:20.286Z,11.00
2022-11-24T15:05:55.468Z,11.10
2022-11-24T15:08:25.807Z,10.97
2022-11-24T15:10:59.835Z,10.96
2022-11-24T15:13:28.735Z,10.88
2022-11-24T15:19:17.849Z,10.78
2022-11-24T15:21:46.514Z,10.72
2022-11-24T15:24:18.484Z,10.75
2022-11-24T15:26:47.885Z,10.73
2022-11-24T15:29:16.650Z,10.72
2022-11-24T15:31:51.023Z,10.63
2022-11-24T15:34:22.527Z,10.57
2022-11-24T15:36:51.315Z,10.55
2022-11-24T15:39:19.755Z,10.55
2022-11-24T15:41:48.305Z,10.48
2022-11-24T15:44:16.638Z,10.47
2022-11-24T15:46:45.090Z,10.40
2022-11-24T15:49:13.641Z,10.30
2022-11-24T15:51:46.125Z,10.16
2022-11-24T15:54:17.155Z,10.05
2022-11-24T15:56:45.628Z,9.99
2022-11-24T15:59:20.335Z,9.97
2022-11-24T16:01:50.896Z,9.85
2022-11-24T16:04:19.585Z,9.85
2022-11-24T16:06:49.546Z,9.78
2022-11-24T16:09:18.184Z,9.69
2022-11-24T16:11:46.604Z,9.66
2022-11-24T16:14:15.285Z,9.66
2022-11-24T16:16:45.181Z,9.63
2022-11-24T16:19:15.747Z,9.62
2022-11-24T16:21:44.107Z,9.62
2022-11-24T16:24:14.058Z,9.57
2022-11-24T16:26:42.666Z,9.53
2022-11-24T16:29:11.369Z,9.47
2022-11-24T16:31:39.699Z,9.45
2022-11-24T16:34:08.059Z,9.44
2022-11-24T16:36:36.578Z,9.37
2022-11-24T16:39:05.071Z,9.39
2022-11-24T16:41:34.752Z,9.36
2022-11-24T16:44:03.475Z,9.32
2022-11-24T16:46:32.103Z,9.23
2022-11-24T16:49:01.479Z,9.22
2022-11-24T16:51:34.684Z,9.20
2022-11-24T16:54:04.399Z,9.11
2022-11-24T16:56:34.543Z,9.10
2022-11-24T16:59:03.148Z,9.07
2022-11-24T17:01:32.789Z,9.06
2022-11-24T17:04:01.547Z,9.00
2022-11-24T17:06:30.016Z,9.00
2022-11-24T17:08:58.350Z,8.95
2022-11-24T17:11:29.080Z,8.93
2022-11-24T17:13:59.624Z,8.90
2022-11-24T17:16:29.427Z,8.89
2022-11-24T17:18:58.835Z,8.86
2022-11-24T17:21:28.790Z,8.82
2022-11-24T17:23:59.004Z,8.72
2022-11-24T17:26:28.614Z,8.71
2022-11-24T17:28:59.036Z,8.66
2022-11-24T17:31:30.911Z,8.65
2022-11-24T17:34:01.865Z,8.52
2022-11-24T17:36:33.543Z,8.46
2022-11-24T17:39:04.395Z,8.40
2022-11-24T17:41:33.959Z,8.36
2022-11-24T17:44:03.884Z,8.35
2022-11-24T17:46:32.596Z,8.31
2022-11-24T17:49:01.070Z,8.23
2022-11-24T17:51:29.354Z,8.20
2022-11-24T17:53:58.269Z,8.19
2022-11-24T17:56:28.253Z,8.15
2022-11-24T17:58:58.493Z,8.07
2022-11-24T18:01:30.314Z,8.00
2022-11-24T18:03:59.253Z,7.97
2022-11-24T18:06:29.078Z,7.88
2022-11-24T18:08:58.538Z,7.80
2022-11-24T18:11:31.835Z,7.74
2022-11-24T18:14:03.228Z,7.71
2022-11-24T18:16:35.362Z,7.69
2022-11-24T18:19:10.678Z,7.66
2022-11-24T18:21:40.034Z,7.64
2022-11-24T18:24:09.378Z,7.62
2022-11-24T18:26:37.882Z,7.51
2022-11-24T18:29:06.653Z,7.45
2022-11-24T18:31:36.452Z,7.41
2022-11-24T18:34:06.660Z,7.41
2022-11-24T18:36:35.673Z,7.36
2022-11-24T18:39:06.165Z,7.34
2022-11-24T18:41:34.736Z,7.33
2022-11-24T18:44:07.549Z,7.29
2022-11-24T18:46:38.207Z,7.23
2022-11-24T18:49:07.541Z,7.24
2022-11-24T18:51:36.107Z,7.25
2022-11-24T18:54:05.376Z,7.18
2022-11-24T18:56:34.175Z,7.09
2022-11-24T18:59:02.469Z,7.09
2022-11-24T19:01:32.164Z,7.04
2022-11-24T19:04:03.342Z,7.03
2022-11-24T19:06:33.525Z,6.95
2022-11-24T19:09:04.757Z,6.94
2022-11-24T19:11:36.270Z,6.93
2022-11-24T19:14:06.748Z,6.93
2022-11-24T19:16:35.868Z,6.94
2022-11-24T19:19:06.021Z,6.88
2022-11-24T19:21:37.211Z,6.89
2022-11-24T19:24:06.931Z,6.79
2022-11-24T19:26:36.004Z,6.77
2022-11-24T19:29:05.848Z,6.77
2022-11-24T19:31:34.875Z,6.67
2022-11-24T19:34:05.823Z,6.65
2022-11-24T19:36:34.319Z,6.65
2022-11-24T19:39:04.671Z,6.58
2022-11-24T19:41:33.983Z,6.53
2022-11-24T19:44:02.438Z,6.52
2022-11-24T19:46:30.954Z,6.53
2022-11-24T19:49:02.349Z,6.49
2022-11-24T19:51:34.688Z,6.49
2022-11-24T19:54:04.048Z,6.51
2022-11-24T19:56:35.879Z,6.54
2022-11-24T19:59:05.483Z,6.57
2022-11-24T20:01:37.341Z,6.60
2022-11-24T20:04:08.213Z,6.59
2022-11-24T20:06:40.900Z,6.59
2022-11-24T20:09:11.982Z,6.60
2022-11-24T20:11:41.578Z,6.60
2022-11-24T20:14:13.801Z,6.60
2022-11-24T20:16:42.560Z,6.57
2022-11-24T20:19:16.298Z,6.56
2022-11-24T20:21:49.297Z,6.51
2022-11-24T20:24:20.649Z,6.51
2022-11-24T20:26:51.941Z,6.47
2022-11-24T20:29:21.020Z,6.49
2022-11-24T20:31:52.069Z,6.47
2022-11-24T20:34:21.747Z,6.42
2022-11-24T20:36:53.594Z,6.40
2022-11-24T20:39:26.235Z,6.32
2022-11-24T20:41:55.696Z,6.22
2022-11-24T20:44:26.528Z,6.16
2022-11-24T20:46:59.814Z,6.10
2022-11-24T20:49:28.824Z,6.07
2022-11-24T20:51:58.490Z,6.03
2022-11-24T20:54:27.001Z,5.98
2022-11-24T20:56:55.667Z,5.97
2022-11-24T20:59:25.874Z,5.95
2022-11-24T21:01:55.385Z,5.90
2022-11-24T21:04:27.043Z,5.90
2022-11-24T21:06:55.794Z,5.87
2022-11-24T21:09:27.189Z,5.77
2022-11-24T21:11:55.865Z,5.71
2022-11-24T21:14:24.766Z,5.60
2022-11-24T21:16:53.143Z,5.54
2022-11-24T21:19:21.728Z,5.47
2022-11-24T21:21:50.316Z,5.45
2022-11-24T21:24:21.485Z,5.44
2022-11-24T21:26:52.421Z,5.44
2022-11-24T21:29:23.595Z,5.40
2022-11-24T21:31:52.344Z,5.39
2022-11-24T21:34:20.977Z,5.37
2022-11-24T21:36:49.377Z,5.39
2022-11-24T21:39:18.509Z,5.37
2022-11-24T21:41:47.539Z,5.38
2022-11-24T21:44:17.518Z,5.42
2022-11-24T21:46:52.730Z,5.38
2022-11-24T21:49:24.184Z,5.34
2022-11-24T21:51:55.889Z,5.28
2022-11-24T21:54:24.684Z,5.25
2022-11-24T21:56:55.447Z,5.20
2022-11-24T21:59:25.258Z,5.20
2022-11-24T22:01:53.808Z,5.15
2022-11-24T22:04:22.264Z,5.19
2022-11-24T22:06:50.594Z,5.16
2022-11-24T22:09:19.253Z,5.11
2022-11-24T22:11:49.037Z,5.10
2022-11-24T22:14:17.566Z,5.09
2022-11-24T22:16:47.306Z,5.03
2022-11-24T22:19:15.820Z,5.03
2022-11-24T22:21:44.140Z,5.02
2022-11-24T22:24:13.092Z,4.96
2022-11-24T22:26:41.470Z,4.90
2022-11-24T22:29:10.134Z,4.90
2022-11-24T22:31:38.405Z,4.87
2022-11-24T22:34:08.379Z,4.80
2022-11-24T22:36:37.641Z,4.80
2022-11-24T22:39:07.238Z,4.79
2022-11-24T22:41:36.675Z,4.69
2022-11-24T22:44:06.091Z,4.64
2022-11-24T22:46:34.916Z,4.59
2022-11-24T22:49:03.566Z,4.57
2022-11-24T22:51:35.269Z,4.51
2022-11-24T22:54:05.651Z,4.48
2022-11-24T22:56:35.181Z,4.45
2022-11-24T22:59:04.543Z,4.42
2022-11-24T23:01:34.362Z,4.43
2022-11-24T23:04:03.843Z,4.42
2022-11-24T23:06:34.841Z,4.39
2022-11-24T23:09:04.970Z,4.40
2022-11-24T23:11:38.481Z,4.37
2022-11-24T23:14:09.329Z,4.35
2022-11-24T23:16:37.951Z,4.35
2022-11-24T23:19:06.812Z,4.39
2022-11-24T23:21:39.197Z,4.44
2022-11-24T23:24:09.642Z,4.47
2022-11-24T23:26:40.549Z,4.49
2022-11-24T23:29:11.152Z,4.48
2022-11-24T23:31:40.693Z,4.49
2022-11-24T23:34:09.973Z,4.43
2022-11-24T23:36:39.932Z,4.32
2022-11-24T23:39:11.936Z,4.27
2022-11-24T23:41:40.435Z,4.20
2022-11-24T23:44:09.094Z,4.17
2022-11-24T23:46:38.392Z,4.13
2022-11-24T23:49:06.726Z,4.10
2022-11-24T23:51:35.452Z,4.08
2022-11-24T23:54:09.568Z,4.04
2022-11-24T23:56:37.972Z,4.07
2022-11-24T23:59:06.995Z,4.03
